createdAt,value
2019-03-04T00:00:44.339Z,94.70
2019-03-04T00:03:15.245Z,94.60
2019-03-04T00:05:45.878Z,94.60
2019-03-04T00:08:15.074Z,94.60
2019-03-04T00:10:44.870Z,94.70
2019-03-04T00:13:14.077Z,94.70
2019-03-04T00:15:43.295Z,94.80
2019-03-04T00:18:12.697Z,94.90
2019-03-04T00:20:42.049Z,94.80
2019-03-04T00:23:11.333Z,95.10
2019-03-04T00:25:41.329Z,94.80
2019-03-04T00:28:10.719Z,94.90
2019-03-04T00:30:40.175Z,94.90
2019-03-04T00:33:09.541Z,95.10
2019-03-04T00:35:38.902Z,95.00
2019-03-04T00:38:08.332Z,95.10
2019-03-04T00:40:37.610Z,95.20
2019-03-04T00:43:06.999Z,95.30
2019-03-04T00:45:36.201Z,95.10
2019-03-04T00:48:05.409Z,95.30
2019-03-04T00:50:34.789Z,95.10
2019-03-04T00:53:04.078Z,95.30
2019-03-04T00:55:33.370Z,95.30
2019-03-04T00:58:02.662Z,95.40
2019-03-04T01:00:31.967Z,95.20
2019-03-04T01:03:01.378Z,95.20
2019-03-04T01:05:30.716Z,95.20
2019-03-04T01:08:00.102Z,95.30
2019-03-04T01:10:29.497Z,95.40
2019-03-04T01:12:58.730Z,95.40
2019-03-04T01:15:28.008Z,95.40
2019-03-04T01:17:57.390Z,95.40
2019-03-04T01:20:26.655Z,95.50
2019-03-04T01:22:55.916Z,95.50
2019-03-04T01:25:25.233Z,95.40
2019-03-04T01:27:54.511Z,95.40
2019-03-04T01:30:24.408Z,95.70
2019-03-04T01:32:53.862Z,95.20
2019-03-04T01:35:23.088Z,95.20
2019-03-04T01:37:52.354Z,95.10
2019-03-04T01:40:23.351Z,95.20
2019-03-04T01:42:52.642Z,95.10
2019-03-04T01:45:21.993Z,95.00
2019-03-04T01:47:51.231Z,95.10
2019-03-04T01:50:20.936Z,95.00
2019-03-04T01:52:50.321Z,95.00
2019-03-04T01:55:19.570Z,95.00
2019-03-04T01:57:48.928Z,94.90
2019-03-04T02:00:20.878Z,94.90
2019-03-04T02:02:50.311Z,94.90
2019-03-04T02:05:20.203Z,94.90
2019-03-04T02:07:49.671Z,94.90
2019-03-04T02:10:19.865Z,94.90
2019-03-04T02:12:49.364Z,94.90
2019-03-04T02:15:19.907Z,94.90
2019-03-04T02:17:49.394Z,94.80
2019-03-04T02:20:18.828Z,94.70
2019-03-04T02:22:48.192Z,94.60
2019-03-04T02:25:21.050Z,94.60
2019-03-04T02:27:53.444Z,94.60
2019-03-04T02:30:25.440Z,94.60
2019-03-04T02:32:54.782Z,94.50
2019-03-04T02:35:24.080Z,94.40
2019-03-04T02:37:53.441Z,94.40
2019-03-04T02:40:22.798Z,94.30
2019-03-04T02:42:52.067Z,94.40
2019-03-04T02:45:21.493Z,94.30
2019-03-04T02:47:50.830Z,94.50
2019-03-04T02:50:20.233Z,94.50
2019-03-04T02:52:49.617Z,94.50
2019-03-04T02:55:18.955Z,94.40
2019-03-04T02:57:48.236Z,94.50
2019-03-04T03:00:18.547Z,94.60
2019-03-04T03:02:48.298Z,94.60
2019-03-04T03:05:17.627Z,94.60
2019-03-04T03:07:47.070Z,94.60
2019-03-04T03:10:16.260Z,94.60
2019-03-04T03:12:45.609Z,94.70
2019-03-04T03:15:18.208Z,94.70
2019-03-04T03:17:47.413Z,94.50
2019-03-04T03:20:16.970Z,94.30
2019-03-04T03:22:46.281Z,94.40
2019-03-04T03:25:16.143Z,94.40
2019-03-04T03:27:45.361Z,94.40
2019-03-04T03:30:16.472Z,94.40
2019-03-04T03:32:46.336Z,94.60
2019-03-04T03:35:15.605Z,94.50
2019-03-04T03:37:45.990Z,94.60
2019-03-04T03:40:17.738Z,94.70
2019-03-04T03:42:47.115Z,94.80
2019-03-04T03:45:16.785Z,94.70
2019-03-04T03:47:46.075Z,94.80
2019-03-04T03:50:16.867Z,94.80
2019-03-04T03:52:46.472Z,94.90
2019-03-04T03:55:16.645Z,95.10
2019-03-04T03:57:46.048Z,95.30
2019-03-04T04:00:17.684Z,95.10
2019-03-04T04:02:46.934Z,95.10
2019-03-04T04:05:16.218Z,95.20
2019-03-04T04:07:45.582Z,95.10
2019-03-04T04:10:17.319Z,95.00
2019-03-04T04:12:46.576Z,94.90
2019-03-04T04:15:16.734Z,94.90
2019-03-04T04:17:46.058Z,94.90
2019-03-04T04:20:15.498Z,94.90
2019-03-04T04:22:44.824Z,95.00
2019-03-04T04:25:14.601Z,95.00
2019-03-04T04:27:43.823Z,95.20
2019-03-04T04:30:16.397Z,94.70
2019-03-04T04:32:45.687Z,94.80
2019-03-04T04:35:15.094Z,94.70
2019-03-04T04:37:44.421Z,94.70
2019-03-04T04:40:14.138Z,94.80
2019-03-04T04:42:43.361Z,94.70
2019-03-04T04:45:12.657Z,94.70
2019-03-04T04:47:43.216Z,94.70
2019-03-04T04:50:15.432Z,94.70
2019-03-04T04:52:44.761Z,94.70
2019-03-04T04:55:15.128Z,94.70
2019-03-04T04:57:44.465Z,94.60
2019-03-04T05:00:16.418Z,94.40
2019-03-04T05:02:45.813Z,94.30
2019-03-04T05:05:15.030Z,94.20
2019-03-04T05:07:44.412Z,94.00
2019-03-04T05:10:16.863Z,94.30
2019-03-04T05:12:46.354Z,93.60
2019-03-04T05:15:16.498Z,93.80
2019-03-04T05:17:45.880Z,93.80
2019-03-04T05:20:18.256Z,93.70
2019-03-04T05:22:47.619Z,93.70
2019-03-04T05:25:17.000Z,93.70
2019-03-04T05:27:46.303Z,93.70
2019-03-04T05:30:17.998Z,93.60
2019-03-04T05:32:47.323Z,93.50
2019-03-04T05:35:16.686Z,93.90
2019-03-04T05:37:46.009Z,93.60
2019-03-04T05:40:17.716Z,93.50
2019-03-04T05:42:47.154Z,93.40
2019-03-04T05:45:17.530Z,93.50
2019-03-04T05:47:46.904Z,93.60
2019-03-04T05:50:19.482Z,93.40
2019-03-04T05:52:48.842Z,93.40
2019-03-04T05:55:18.162Z,93.30
2019-03-04T05:57:47.574Z,93.20
2019-03-04T06:00:20.466Z,93.20
2019-03-04T06:02:51.393Z,93.10
2019-03-04T06:05:20.631Z,92.80
2019-03-04T06:07:51.633Z,92.90
2019-03-04T06:10:21.241Z,92.80
2019-03-04T06:12:50.698Z,92.70
2019-03-04T06:15:21.058Z,92.60
2019-03-04T06:17:50.310Z,92.50
2019-03-04T06:20:20.225Z,92.40
2019-03-04T06:22:49.789Z,92.30
2019-03-04T06:25:21.613Z,92.10
2019-03-04T06:27:50.927Z,91.90
2019-03-04T06:30:22.233Z,92.00
2019-03-04T06:32:51.603Z,91.90
2019-03-04T06:35:20.996Z,91.80
2019-03-04T06:37:50.338Z,91.80
2019-03-04T06:40:20.677Z,91.70
2019-03-04T06:42:50.128Z,91.60
2019-03-04T06:45:20.626Z,91.40
2019-03-04T06:47:49.960Z,91.40
2019-03-04T06:50:22.563Z,91.40
2019-03-04T06:52:51.934Z,91.30
2019-03-04T06:55:24.452Z,91.10
2019-03-04T06:57:53.770Z,91.00
2019-03-04T07:00:26.354Z,90.90
2019-03-04T07:02:55.601Z,90.90
2019-03-04T07:05:28.171Z,90.60
2019-03-04T07:07:57.555Z,90.50
2019-03-04T07:10:26.900Z,90.30
2019-03-04T07:12:56.271Z,90.20
2019-03-04T07:15:25.782Z,90.10
2019-03-04T07:17:55.203Z,90.10
2019-03-04T07:20:24.432Z,90.00
2019-03-04T07:22:53.778Z,89.60
2019-03-04T07:25:23.171Z,89.60
2019-03-04T07:27:52.579Z,89.10
2019-03-04T07:30:21.856Z,88.40
2019-03-04T07:32:51.166Z,88.40
2019-03-04T07:35:20.419Z,87.70
2019-03-04T07:37:53.163Z,87.70
2019-03-04T07:40:22.503Z,88.60
2019-03-04T07:42:51.780Z,88.10
2019-03-04T07:45:21.053Z,88.00
2019-03-04T07:47:50.511Z,87.30
2019-03-04T07:50:19.854Z,87.10
2019-03-04T07:52:52.490Z,87.40
2019-03-04T07:55:21.768Z,87.30
2019-03-04T07:57:51.137Z,87.50
2019-03-04T08:00:20.364Z,87.20
2019-03-04T08:02:50.248Z,86.70
2019-03-04T08:05:19.584Z,86.70
2019-03-04T08:07:52.229Z,86.70
2019-03-04T08:10:24.895Z,86.20
2019-03-04T08:12:58.559Z,86.00
2019-03-04T08:15:29.622Z,85.70
2019-03-04T08:17:59.013Z,85.80
2019-03-04T08:20:28.418Z,85.90
2019-03-04T08:22:57.629Z,85.30
2019-03-04T08:25:26.954Z,85.50
2019-03-04T08:27:56.350Z,85.30
2019-03-04T08:30:25.869Z,85.10
2019-03-04T08:32:55.359Z,85.10
2019-03-04T08:35:24.732Z,85.10
2019-03-04T08:37:54.163Z,84.60
2019-03-04T08:40:23.568Z,84.10
2019-03-04T08:42:52.847Z,84.10
2019-03-04T08:45:22.209Z,83.90
2019-03-04T08:47:51.568Z,84.40
2019-03-04T08:50:20.964Z,83.90
2019-03-04T08:52:50.365Z,83.90
2019-03-04T08:55:19.779Z,83.80
2019-03-04T08:57:49.176Z,83.40
2019-03-04T09:00:21.554Z,81.70
2019-03-04T09:02:50.951Z,83.80
2019-03-04T09:05:20.185Z,80.90
2019-03-04T09:07:49.553Z,79.60
2019-03-04T09:10:22.018Z,81.20
2019-03-04T09:12:51.310Z,80.10
2019-03-04T09:15:20.702Z,80.00
2019-03-04T09:17:49.999Z,81.20
2019-03-04T09:20:19.840Z,80.40
2019-03-04T09:22:49.347Z,79.40
2019-03-04T09:25:30.015Z,79.80
2019-03-04T09:27:53.353Z,79.30
2019-03-04T09:30:23.065Z,79.00
2019-03-04T09:32:52.380Z,78.90
2019-03-04T09:35:21.656Z,79.20
2019-03-04T09:37:51.008Z,79.10
2019-03-04T09:40:22.828Z,79.70
2019-03-04T09:42:52.549Z,79.20
2019-03-04T09:45:21.899Z,79.20
2019-03-04T09:47:51.250Z,78.80
2019-03-04T09:50:22.074Z,79.60
2019-03-04T09:52:51.363Z,79.20
2019-03-04T09:55:21.100Z,76.60
2019-03-04T09:57:50.396Z,77.70
2019-03-04T10:00:23.175Z,76.60
2019-03-04T10:02:56.063Z,77.40
2019-03-04T10:05:28.644Z,78.30
2019-03-04T10:08:01.303Z,75.70
2019-03-04T10:10:33.998Z,77.90
2019-03-04T10:13:06.616Z,77.30
2019-03-04T10:15:39.175Z,77.20
2019-03-04T10:18:11.625Z,76.90
2019-03-04T10:20:44.303Z,75.50
2019-03-04T10:23:16.779Z,75.90
2019-03-04T10:25:49.557Z,75.70
2019-03-04T10:28:21.994Z,75.60
2019-03-04T10:30:54.598Z,73.60
2019-03-04T10:33:27.166Z,75.30
2019-03-04T10:35:59.761Z,75.10
2019-03-04T10:38:32.444Z,76.60
2019-03-04T10:41:05.026Z,73.80
2019-03-04T10:43:37.695Z,75.60
2019-03-04T10:46:10.201Z,74.10
2019-03-04T10:48:39.522Z,74.50
2019-03-04T10:51:08.861Z,76.00
2019-03-04T10:53:38.277Z,74.90
2019-03-04T10:56:07.651Z,75.50
2019-03-04T10:58:37.029Z,75.60
2019-03-04T11:01:06.380Z,73.90
2019-03-04T11:03:35.732Z,72.00
2019-03-04T11:06:05.086Z,73.00
2019-03-04T11:08:34.478Z,73.30
2019-03-04T11:11:04.600Z,72.60
2019-03-04T11:13:33.892Z,73.50
2019-03-04T11:16:03.304Z,72.10
2019-03-04T11:18:33.610Z,72.50
2019-03-04T11:21:02.912Z,73.40
2019-03-04T11:23:32.209Z,71.00
2019-03-04T11:26:01.513Z,71.00
2019-03-04T11:28:30.930Z,70.50
2019-03-04T11:31:00.168Z,72.20
2019-03-04T11:33:29.527Z,72.00
2019-03-04T11:35:58.884Z,72.80
2019-03-04T11:38:31.380Z,70.70
2019-03-04T11:41:00.777Z,71.80
2019-03-04T11:43:30.208Z,69.60
2019-03-04T11:45:59.588Z,71.00
2019-03-04T11:48:29.325Z,70.30
2019-03-04T11:50:58.824Z,70.60
2019-03-04T11:53:28.326Z,71.00
2019-03-04T11:55:57.593Z,69.50
2019-03-04T11:58:26.943Z,68.80
2019-03-04T12:00:59.304Z,69.00
2019-03-04T12:03:28.795Z,68.60
2019-03-04T12:05:59.190Z,67.70
2019-03-04T12:08:28.538Z,68.80
2019-03-04T12:10:58.048Z,67.60
2019-03-04T12:13:27.291Z,67.10
2019-03-04T12:15:56.737Z,66.20
2019-03-04T12:18:26.501Z,65.60
2019-03-04T12:20:55.916Z,66.50
2019-03-04T12:23:25.258Z,67.30
2019-03-04T12:25:54.655Z,67.00
2019-03-04T12:28:24.601Z,67.20
2019-03-04T12:30:54.081Z,65.90
2019-03-04T12:33:23.478Z,66.40
2019-03-04T12:35:52.916Z,66.10
2019-03-04T12:38:22.273Z,64.10
2019-03-04T12:40:51.616Z,66.60
2019-03-04T12:43:20.874Z,66.70
2019-03-04T12:45:50.097Z,65.40
2019-03-04T12:48:19.408Z,65.60
2019-03-04T12:50:48.799Z,65.30
2019-03-04T12:53:18.111Z,64.50
2019-03-04T12:55:47.424Z,65.10
2019-03-04T12:58:16.768Z,66.10
2019-03-04T13:00:46.019Z,66.00
2019-03-04T13:03:18.189Z,65.30
2019-03-04T13:05:47.577Z,65.70
2019-03-04T13:08:17.020Z,64.60
2019-03-04T13:10:46.328Z,64.40
2019-03-04T13:13:17.492Z,64.40
2019-03-04T13:15:48.333Z,63.30
2019-03-04T13:18:17.641Z,63.40
2019-03-04T13:20:46.934Z,63.80
2019-03-04T13:23:16.330Z,64.00
2019-03-04T13:25:45.734Z,64.10
2019-03-04T13:28:15.070Z,62.40
2019-03-04T13:30:44.440Z,63.80
2019-03-04T13:33:13.834Z,62.80
2019-03-04T13:35:44.254Z,61.60
2019-03-04T13:38:13.601Z,62.10
2019-03-04T13:40:43.038Z,62.10
2019-03-04T13:43:12.508Z,61.20
2019-03-04T13:45:41.806Z,61.60
2019-03-04T13:48:11.226Z,62.70
2019-03-04T13:50:40.635Z,62.00
2019-03-04T13:53:09.929Z,61.90
2019-03-04T13:55:39.236Z,62.20
2019-03-04T13:58:08.600Z,61.80
2019-03-04T14:00:40.536Z,61.30
2019-03-04T14:03:11.373Z,61.30
2019-03-04T14:05:40.852Z,62.30
2019-03-04T14:08:10.256Z,62.80
2019-03-04T14:10:42.657Z,62.70
2019-03-04T14:13:12.471Z,61.80
2019-03-04T14:15:44.604Z,63.10
2019-03-04T14:18:13.966Z,62.70
2019-03-04T14:20:43.248Z,61.90
2019-03-04T14:23:12.623Z,62.50
2019-03-04T14:25:42.538Z,62.40
2019-03-04T14:28:11.828Z,62.20
2019-03-04T14:30:41.169Z,63.10
2019-03-04T14:33:10.460Z,62.30
2019-03-04T14:35:39.799Z,63.10
2019-03-04T14:38:09.254Z,62.40
2019-03-04T14:40:38.659Z,62.30
2019-03-04T14:43:08.060Z,62.70
2019-03-04T14:45:37.446Z,62.30
2019-03-04T14:48:06.808Z,62.40
2019-03-04T14:50:36.178Z,62.00
2019-03-04T14:53:05.493Z,62.80
2019-03-04T14:55:37.053Z,62.30
2019-03-04T14:58:06.413Z,63.70
2019-03-04T15:00:37.142Z,62.80
2019-03-04T15:03:06.742Z,61.60
2019-03-04T15:05:36.673Z,62.30
2019-03-04T15:08:06.160Z,62.20
2019-03-04T15:10:35.486Z,62.50
2019-03-04T15:13:04.867Z,63.50
2019-03-04T15:15:35.291Z,62.70
2019-03-04T15:18:06.011Z,62.20
2019-03-04T15:20:35.344Z,63.80
2019-03-04T15:23:04.763Z,62.90
2019-03-04T15:25:36.956Z,63.80
2019-03-04T15:28:09.828Z,63.80
2019-03-04T15:30:41.057Z,63.70
2019-03-04T15:33:17.473Z,64.00
2019-03-04T15:35:41.478Z,64.50
2019-03-04T15:38:10.771Z,64.70
2019-03-04T15:40:40.062Z,64.10
2019-03-04T15:43:09.546Z,64.90
2019-03-04T15:45:40.519Z,65.10
2019-03-04T15:48:09.821Z,65.10
2019-03-04T15:50:39.268Z,65.10
2019-03-04T15:53:09.745Z,65.80
2019-03-04T15:55:40.102Z,65.70
2019-03-04T15:58:09.462Z,66.20
2019-03-04T16:00:38.857Z,65.90
2019-03-04T16:03:08.185Z,66.40
2019-03-04T16:05:37.586Z,66.40
2019-03-04T16:08:08.139Z,66.60
2019-03-04T16:10:38.539Z,67.00
2019-03-04T16:13:08.763Z,67.10
2019-03-04T16:15:41.023Z,67.20
2019-03-04T16:18:10.423Z,67.50
2019-03-04T16:20:39.931Z,67.60
2019-03-04T16:23:09.232Z,68.30
2019-03-04T16:25:38.533Z,68.10
2019-03-04T16:28:11.157Z,68.50
2019-03-04T16:30:40.616Z,68.90
2019-03-04T16:33:10.021Z,68.80
2019-03-04T16:35:39.315Z,69.00
2019-03-04T16:38:08.656Z,69.10
2019-03-04T16:40:38.979Z,69.70
2019-03-04T16:43:09.423Z,69.30
2019-03-04T16:45:38.767Z,69.30
2019-03-04T16:48:08.075Z,69.40
2019-03-04T16:50:39.770Z,69.70
2019-03-04T16:53:12.707Z,69.60
2019-03-04T16:55:41.993Z,69.70
2019-03-04T16:58:11.308Z,69.80
2019-03-04T17:00:40.817Z,70.00
2019-03-04T17:03:12.698Z,69.70
2019-03-04T17:05:42.069Z,70.00
2019-03-04T17:08:11.389Z,70.40
2019-03-04T17:10:40.821Z,70.90
2019-03-04T17:13:10.169Z,70.60
2019-03-04T17:15:39.578Z,70.80
2019-03-04T17:18:08.958Z,70.60
2019-03-04T17:20:38.290Z,70.80
2019-03-04T17:23:09.691Z,70.90
2019-03-04T17:25:39.141Z,71.10
2019-03-04T17:28:08.465Z,70.80
2019-03-04T17:30:37.764Z,70.60
2019-03-04T17:33:07.147Z,71.10
2019-03-04T17:35:36.536Z,70.70
2019-03-04T17:38:06.043Z,70.80
2019-03-04T17:40:35.446Z,70.90
2019-03-04T17:43:04.745Z,71.30
2019-03-04T17:45:34.280Z,70.70
2019-03-04T17:48:03.616Z,70.50
2019-03-04T17:50:35.535Z,70.40
2019-03-04T17:53:07.786Z,70.60
2019-03-04T17:55:37.167Z,70.80
2019-03-04T17:58:06.825Z,70.70
2019-03-04T18:00:37.933Z,70.30
2019-03-04T18:03:07.334Z,70.70
2019-03-04T18:05:36.674Z,70.30
2019-03-04T18:08:06.039Z,70.30
2019-03-04T18:10:35.346Z,69.90
2019-03-04T18:13:07.036Z,70.10
2019-03-04T18:15:38.550Z,70.40
2019-03-04T18:18:07.960Z,69.30
2019-03-04T18:20:37.237Z,69.50
2019-03-04T18:23:07.000Z,69.60
2019-03-04T18:25:39.456Z,69.70
2019-03-04T18:28:12.049Z,69.30
2019-03-04T18:30:44.788Z,69.60
2019-03-04T18:33:17.569Z,69.60
2019-03-04T18:35:50.242Z,69.20
2019-03-04T18:38:22.935Z,69.20
2019-03-04T18:40:55.679Z,69.30
2019-03-04T18:43:28.271Z,69.30
2019-03-04T18:46:00.967Z,68.90
2019-03-04T18:48:33.671Z,68.60
2019-03-04T18:51:02.975Z,69.00
2019-03-04T18:53:32.395Z,68.80
2019-03-04T18:56:01.653Z,68.80
2019-03-04T18:58:31.050Z,69.00
2019-03-04T19:01:00.457Z,69.20
2019-03-04T19:03:29.863Z,69.20
2019-03-04T19:06:00.384Z,69.00
2019-03-04T19:08:29.790Z,69.20
2019-03-04T19:10:59.120Z,69.10
2019-03-04T19:13:28.592Z,69.10
2019-03-04T19:15:57.963Z,68.80
2019-03-04T19:18:31.482Z,69.60
2019-03-04T19:21:01.736Z,68.80
2019-03-04T19:23:32.331Z,69.10
2019-03-04T19:26:02.252Z,68.90
2019-03-04T19:28:31.934Z,68.70
2019-03-04T19:31:01.162Z,69.10
2019-03-04T19:33:34.176Z,69.00
2019-03-04T19:36:04.273Z,69.30
2019-03-04T19:38:34.148Z,69.00
2019-03-04T19:41:05.706Z,69.30
2019-03-04T19:43:36.951Z,69.60
2019-03-04T19:46:08.472Z,69.70
2019-03-04T19:48:38.279Z,69.00
2019-03-04T19:51:08.717Z,68.10
2019-03-04T19:53:38.358Z,68.80
2019-03-04T19:56:09.286Z,67.70
2019-03-04T19:58:41.359Z,67.60
2019-03-04T20:01:11.502Z,67.90
2019-03-04T20:03:41.082Z,67.80
2019-03-04T20:06:11.268Z,67.60
2019-03-04T20:08:42.380Z,67.10
2019-03-04T20:11:12.182Z,67.20
2019-03-04T20:13:42.318Z,67.20
2019-03-04T20:16:17.394Z,67.40
2019-03-04T20:18:48.725Z,66.80
2019-03-04T20:21:18.218Z,67.10
2019-03-04T20:23:47.653Z,67.20
2019-03-04T20:26:17.199Z,67.00
2019-03-04T20:28:46.477Z,67.10
2019-03-04T20:31:16.962Z,66.80
2019-03-04T20:33:47.074Z,66.10
2019-03-04T20:36:19.313Z,65.80
2019-03-04T20:38:53.548Z,66.00
2019-03-04T20:41:23.329Z,66.40
2019-03-04T20:43:52.899Z,66.20
2019-03-04T20:46:24.671Z,66.00
2019-03-04T20:48:55.489Z,65.60
2019-03-04T20:51:25.277Z,65.80
2019-03-04T20:53:55.161Z,65.40
2019-03-04T20:56:25.359Z,64.80
2019-03-04T20:58:54.790Z,65.40
2019-03-04T21:01:28.133Z,65.30
2019-03-04T21:03:59.558Z,64.40
2019-03-04T21:06:32.889Z,64.40
2019-03-04T21:09:08.707Z,64.40
2019-03-04T21:11:40.467Z,64.50
2019-03-04T21:14:11.351Z,64.40
2019-03-04T21:16:40.965Z,64.90
2019-03-04T21:19:11.541Z,64.40
2019-03-04T21:21:42.342Z,64.40
2019-03-04T21:24:11.960Z,64.30
2019-03-04T21:26:43.611Z,64.40
2019-03-04T21:29:17.165Z,64.30
2019-03-04T21:31:50.617Z,64.50
2019-03-04T21:34:23.735Z,64.70
2019-03-04T21:36:59.617Z,65.40
2019-03-04T21:39:35.511Z,65.10
2019-03-04T21:42:08.774Z,65.50
2019-03-04T21:44:41.328Z,65.90
2019-03-04T21:47:13.988Z,66.00
2019-03-04T21:49:47.120Z,66.50
2019-03-04T21:52:20.756Z,66.60
2019-03-04T21:54:51.176Z,66.40
2019-03-04T21:57:25.089Z,66.50
2019-03-04T21:59:55.043Z,67.30
2019-03-04T22:02:27.751Z,67.40
2019-03-04T22:04:58.971Z,67.40
2019-03-04T22:07:28.331Z,67.20
2019-03-04T22:09:58.033Z,67.10
2019-03-04T22:12:28.232Z,67.00
2019-03-04T22:14:57.585Z,67.50
2019-03-04T22:17:27.963Z,68.10
2019-03-04T22:19:57.410Z,68.00
2019-03-04T22:22:26.767Z,68.50
2019-03-04T22:24:56.063Z,69.10
2019-03-04T22:27:25.369Z,68.80
2019-03-04T22:29:54.780Z,69.00
2019-03-04T22:32:24.139Z,69.60
2019-03-04T22:34:53.596Z,69.20
2019-03-04T22:37:22.857Z,69.30
2019-03-04T22:39:52.446Z,69.00
2019-03-04T22:42:21.782Z,69.50
2019-03-04T22:44:51.099Z,69.50
2019-03-04T22:47:20.492Z,69.60
2019-03-04T22:49:50.942Z,70.00
2019-03-04T22:52:20.418Z,70.80
2019-03-04T22:54:49.768Z,71.00
2019-03-04T22:57:19.134Z,70.70
2019-03-04T22:59:48.435Z,71.00
2019-03-04T23:02:17.748Z,71.20
2019-03-04T23:04:47.126Z,69.80
2019-03-04T23:07:17.455Z,70.30
2019-03-04T23:09:50.077Z,73.20
2019-03-04T23:12:22.614Z,72.00
2019-03-04T23:14:52.240Z,73.90
2019-03-04T23:17:21.592Z,74.20
2019-03-04T23:19:50.905Z,74.80
2019-03-04T23:22:20.212Z,75.90
2019-03-04T23:24:49.616Z,76.40
2019-03-04T23:27:19.047Z,77.80
2019-03-04T23:29:48.397Z,78.60
2019-03-04T23:32:17.612Z,79.40
2019-03-04T23:34:47.119Z,79.10
2019-03-04T23:37:16.465Z,80.20
2019-03-04T23:39:45.684Z,81.30
2019-03-04T23:42:15.047Z,81.40
2019-03-04T23:44:44.377Z,81.80
2019-03-04T23:47:13.676Z,81.80
2019-03-04T23:49:43.027Z,82.80
2019-03-04T23:52:12.315Z,82.50
2019-03-04T23:54:41.608Z,83.00
2019-03-04T23:57:10.899Z,82.90
2019-03-04T23:59:40.210Z,82.80
